WetterOnline ( https://www.wetteronline.de )

Wetter aktuell Rechtsupweg

Aktuelles Wetter: Emden (5m)

6-stündlich | Neueste Meldungen
Ortszeit Temperatur Wetter
Fr, 06.12. 7:00 6.0° C bedeckt
Fr, 06.12. 1:00 5.5° C Regen
Do, 05.12. 19:00 3.0° C bedeckt
Do, 05.12. 13:00 1.7° C bedeckt
Do, 05.12. 7:00 1.8° C bewölkt
Do, 05.12. 1:00 2.2° C wolkenlos
Mi, 04.12. 19:00 4.6° C wolkenlos
Mi, 04.12. 13:00 6.5° C leicht bewölkt
Ortszeit Temperatur Wetter
Fr, 06.12. 7:00 6.0° C bedeckt
Fr, 06.12. 6:50 6.0° C bedeckt
Fr, 06.12. 6:40 6.0° C bedeckt
Fr, 06.12. 6:30 6.0° C bedeckt
Fr, 06.12. 6:20 6.0° C bedeckt
Fr, 06.12. 6:10 6.0° C bedeckt
Fr, 06.12. 6:00 5.9° C bedeckt
Fr, 06.12. 5:30 5.9° C Sprühregen
Fr, 06.12. 5:00 6.1° C leichter Regen
Fr, 06.12. 3:00 6.4° C bedeckt
Ortszeit Relative Feuchte Sichtweite
Fr, 06.12. 7:00 95% 4.7 km
Fr, 06.12. 1:00 89% 10 km
Do, 05.12. 19:00 95% 4.8 km
Do, 05.12. 13:00 100% 2.2 km
Do, 05.12. 7:00 94% 8 km
Do, 05.12. 1:00 91% 10 km
Mi, 04.12. 19:00 87% 17 km
Mi, 04.12. 13:00 82% 18 km
Ortszeit Relative Feuchte Sichtweite
Fr, 06.12. 7:00 95% 4.7 km
Fr, 06.12. 6:50 95% -
Fr, 06.12. 6:40 95% -
Fr, 06.12. 6:30 94% 6 km
Fr, 06.12. 6:20 94% -
Fr, 06.12. 6:10 94% -
Fr, 06.12. 6:00 95% 5.0 km
Fr, 06.12. 5:30 95% 5.0 km
Fr, 06.12. 5:00 94% 5.0 km
Fr, 06.12. 3:00 89% 11 km
Ortszeit Niederschlagsmenge Niederschlagsart
Fr, 06.12. 7:00 1 l/m2 in 12 Std. Regen
Fr, 06.12. 1:00 0.4 l/m2 in 6 Std. Regen
Do, 05.12. 19:00 0.0 l/m2 in 12 Std. -
Do, 05.12. 13:00 0.0 l/m2 in 6 Std. -
Do, 05.12. 7:00 0.0 l/m2 in 12 Std. -
Do, 05.12. 1:00 0.0 l/m2 in 6 Std. -
Mi, 04.12. 19:00 0.0 l/m2 in 12 Std. -
Mi, 04.12. 13:00 0.0 l/m2 in 6 Std. -
Ortszeit Niederschlagsmenge Niederschlagsart
Fr, 06.12. 7:00 0.1 l/m2 in 1 Std. Regen
Fr, 06.12. 6:50 keine Meldung -
Fr, 06.12. 6:40 keine Meldung -
Fr, 06.12. 6:30 0.0 l/m2 in 1 Std. -
Fr, 06.12. 6:20 keine Meldung -
Fr, 06.12. 6:10 keine Meldung -
Fr, 06.12. 6:00 0.5 l/m2 in 1 Std. Regen
Fr, 06.12. 5:30 0.4 l/m2 in 1 Std. -
Fr, 06.12. 5:00 0.3 l/m2 in 1 Std. Regen
Fr, 06.12. 3:00 keine Meldung -
Ortszeit Stärke Spitze Richtung
km/h Bft. km/h Grad Sektor
Fr, 06.12. 7:00 25 4 54 210° SW
Fr, 06.12. 1:00 32 5 58 210° SW
Do, 05.12. 19:00 25 4 40 200° S
Do, 05.12. 13:00 19 3 30 220° SW
Do, 05.12. 7:00 9 2 19 190° S
Do, 05.12. 1:00 7 2 22 220° SW
Mi, 04.12. 19:00 11 2 25 200° S
Mi, 04.12. 13:00 13 3 24 210° SW
Ortszeit Stärke Spitze Richtung
km/h Bft. km/h Grad Sektor
Fr, 06.12. 7:00 25 4 50 210° SW
Fr, 06.12. 6:50 25 4 - 210° SW
Fr, 06.12. 6:40 26 4 - 210° SW
Fr, 06.12. 6:30 28 4 50 220° SW
Fr, 06.12. 6:20 28 4 - 220° SW
Fr, 06.12. 6:10 26 4 - 210° SW
Fr, 06.12. 6:00 26 4 52 210° SW
Fr, 06.12. 5:30 28 4 50 220° SW
Fr, 06.12. 5:00 28 4 50 220° SW
Fr, 06.12. 3:00 29 5 50 210° SW
Ortszeit Untergrenze Bedeckung Gattung
total tief tief mittel hoch
Fr, 06.12. 7:00 150 m 8/8 8/8 - - -
Fr, 06.12. 1:00 390 m 8/8 8/8 - - -
Do, 05.12. 19:00 120 m 8/8 8/8 - - -
Do, 05.12. 13:00 30 m 8/8 8/8 - - -
Do, 05.12. 7:00 5700 m 7/8 7/8 - - -
Do, 05.12. 1:00 - 0/8 0/8 - - -
Mi, 04.12. 19:00 - 0/8 0/8 - - -
Mi, 04.12. 13:00 540 m 2/8 2/8 - - -
Ortszeit Bedeckungsgrad in Achtel und Wolkenuntergrenze
Fr, 06.12. 7:00 8(150m)
Fr, 06.12. 6:50 8(150m)
Fr, 06.12. 6:40 8(180m)
Fr, 06.12. 6:30 8(180m)
Fr, 06.12. 6:20 8(180m)
Fr, 06.12. 6:10 8(180m)
Fr, 06.12. 6:00 8(210m)
Fr, 06.12. 5:30 7(210m)
Fr, 06.12. 5:00 8(210m)
Fr, 06.12. 3:00 8(300m)
Ortszeit Luftdruck NN (hPa) Tendenz (hPa in 3 Std.)
Fr, 06.12. 7:00 1006 - 0,8
Fr, 06.12. 1:00 1009 - 3,1
Do, 05.12. 19:00 1014 - 1,9
Do, 05.12. 13:00 1018 0,0
Do, 05.12. 7:00 1019 - 0,4
Do, 05.12. 1:00 1020 - 1,2
Mi, 04.12. 19:00 1021 - 0,1
Mi, 04.12. 13:00 1021 - 0,7
Ortszeit Luftdruck NN (hPa) Tendenz (hPa in 3 Std.)
Fr, 06.12. 7:00 1006 - 0,8
Fr, 06.12. 6:50 1006 keine Meldung
Fr, 06.12. 6:40 1006 keine Meldung
Fr, 06.12. 6:30 1006 - 1,0
Fr, 06.12. 6:20 1006 keine Meldung
Fr, 06.12. 6:10 1006 keine Meldung
Fr, 06.12. 6:00 1006 - 0,9
Fr, 06.12. 5:30 1007 - 1,0
Fr, 06.12. 5:00 1007 - 1,1
Fr, 06.12. 3:00 1007 - 2,2
Ortszeit Schneehöhe (cm)
Fr, 06.12. 7:00 0
Fr, 06.12. 1:00 0
Do, 05.12. 19:00 0
Do, 05.12. 13:00 0
Do, 05.12. 7:00 0
Do, 05.12. 1:00 0
Mi, 04.12. 19:00 0
Mi, 04.12. 13:00 0
Ortszeit Schneehöhe (cm)
Fr, 06.12. 7:00 0
Fr, 06.12. 6:50 0
Fr, 06.12. 6:40 0
Fr, 06.12. 6:30 0
Fr, 06.12. 6:20 0
Fr, 06.12. 6:10 0
Fr, 06.12. 6:00 0
Fr, 06.12. 5:30 0
Fr, 06.12. 5:00 0
Fr, 06.12. 3:00 -
Link zu dieser Seite / Seite empfehlen

Das Wetter in ...